createdAt,value
2017-04-06T00:02:55.058Z,1018.66
2017-04-06T00:07:51.487Z,1018.69
2017-04-06T00:12:47.607Z,1018.74
2017-04-06T00:17:44.368Z,1018.73
2017-04-06T00:22:44.847Z,1018.66
2017-04-06T00:27:41.302Z,1018.74
2017-04-06T00:32:37.674Z,1018.65
2017-04-06T00:37:34.265Z,1018.56
2017-04-06T00:42:30.889Z,1018.45
2017-04-06T00:47:27.325Z,1018.51
2017-04-06T00:52:28.412Z,1018.50
2017-04-06T00:57:23.956Z,1018.49
2017-04-06T01:02:20.227Z,1018.52
2017-04-06T01:07:16.651Z,1018.45
2017-04-06T01:12:13.781Z,1018.35
2017-04-06T01:17:10.208Z,1018.38
2017-04-06T01:22:06.713Z,1018.43
2017-04-06T01:27:03.099Z,1018.52
2017-04-06T01:32:02.131Z,1018.33
2017-04-06T01:36:57.925Z,1018.38
2017-04-06T01:41:54.424Z,1018.40
2017-04-06T01:46:50.811Z,1018.35
2017-04-06T01:51:46.912Z,1018.37
2017-04-06T01:56:43.312Z,1018.32
2017-04-06T02:01:39.795Z,1018.32
2017-04-06T02:06:36.394Z,1018.34
2017-04-06T02:11:33.103Z,1018.37
2017-04-06T02:16:30.765Z,1018.31
2017-04-06T02:21:26.877Z,1018.36
2017-04-06T02:26:23.366Z,1018.45
2017-04-06T02:31:19.646Z,1018.49
2017-04-06T02:36:16.177Z,1018.51
2017-04-06T02:41:12.875Z,1018.55
2017-04-06T02:46:10.099Z,1018.62
2017-04-06T02:51:06.250Z,1018.58
2017-04-06T02:56:03.205Z,1018.62
2017-04-06T03:00:59.918Z,1018.54
2017-04-06T03:05:56.457Z,1018.55
2017-04-06T03:10:52.956Z,1018.64
2017-04-06T03:15:49.499Z,1018.60
2017-04-06T03:20:46.613Z,1018.69
2017-04-06T03:25:43.677Z,1018.81
2017-04-06T03:30:39.735Z,1018.73
2017-04-06T03:35:36.264Z,1018.80
2017-04-06T03:40:32.593Z,1018.76
2017-04-06T03:45:29.118Z,1018.91
2017-04-06T03:50:25.673Z,1018.96
2017-04-06T03:55:22.199Z,1019.03
2017-04-06T04:00:18.457Z,1019.08
2017-04-06T04:05:15.625Z,1019.13
2017-04-06T04:10:12.138Z,1019.23
2017-04-06T04:15:10.219Z,1019.33
2017-04-06T04:20:06.191Z,1019.29
2017-04-06T04:25:02.538Z,1019.37
2017-04-06T04:29:59.253Z,1019.42
2017-04-06T04:34:56.516Z,1019.52
2017-04-06T04:39:52.647Z,1019.41
2017-04-06T04:44:48.979Z,1019.56
2017-04-06T04:49:45.103Z,1019.44
2017-04-06T04:54:41.566Z,1019.45
2017-04-06T04:59:38.221Z,1019.51
2017-04-06T05:04:34.878Z,1019.43
2017-04-06T05:09:31.244Z,1019.43
2017-04-06T05:14:28.358Z,1019.42
2017-04-06T05:19:24.948Z,1019.40
2017-04-06T05:24:21.824Z,1019.39
2017-04-06T05:29:18.545Z,1019.47
2017-04-06T05:34:15.002Z,1019.32
2017-04-06T05:39:11.963Z,1019.50
2017-04-06T05:44:08.638Z,1019.57
2017-04-06T05:49:05.465Z,1019.74
2017-04-06T05:54:02.913Z,1019.69
2017-04-06T05:58:59.183Z,1019.82
2017-04-06T06:03:55.547Z,1019.80
2017-04-06T06:08:52.145Z,1019.91
2017-04-06T06:13:48.609Z,1019.95
2017-04-06T06:18:45.277Z,1020.07
2017-04-06T06:23:41.593Z,1020.01
2017-04-06T06:28:37.427Z,1020.01
2017-04-06T06:33:34.067Z,1020.18
2017-04-06T06:38:30.762Z,1020.24
2017-04-06T06:43:27.215Z,1020.19
2017-04-06T06:48:24.113Z,1020.17
2017-04-06T06:53:20.741Z,1020.18
2017-04-06T06:58:18.321Z,1020.27
2017-04-06T07:03:14.906Z,1020.32
2017-04-06T07:13:17.260Z,1020.53
2017-04-06T07:18:13.640Z,1020.47
2017-04-06T07:23:10.228Z,1020.45
2017-04-06T07:28:06.586Z,1020.36
2017-04-06T07:33:03.809Z,1020.37
2017-04-06T07:38:00.241Z,1020.38
2017-04-06T07:42:56.763Z,1020.40
2017-04-06T07:47:53.422Z,1020.41
2017-04-06T07:52:50.505Z,1020.46
2017-04-06T07:57:46.882Z,1020.60
2017-04-06T08:02:43.463Z,1020.53
2017-04-06T08:07:40.506Z,1020.49
2017-04-06T08:12:37.001Z,1020.57
2017-04-06T08:17:33.599Z,1020.57
2017-04-06T08:22:29.832Z,1020.70
2017-04-06T08:27:26.570Z,1020.76
2017-04-06T08:32:29.428Z,1020.75
2017-04-06T08:37:24.431Z,1020.98
2017-04-06T08:42:21.836Z,1020.90
2017-04-06T08:47:21.010Z,1020.91
2017-04-06T08:52:17.226Z,1020.82
2017-04-06T08:57:13.860Z,1020.91
2017-04-06T09:02:12.047Z,1021.01
2017-04-06T09:07:08.058Z,1020.95
2017-04-06T09:12:04.447Z,1020.96
2017-04-06T09:17:01.821Z,1020.96
2017-04-06T09:21:58.218Z,1021.11
2017-04-06T09:26:55.366Z,1021.05
2017-04-06T09:31:52.673Z,1021.13
2017-04-06T09:36:49.430Z,1021.15
2017-04-06T09:41:47.138Z,1021.14
2017-04-06T09:46:43.634Z,1021.31
2017-04-06T09:51:41.629Z,1021.15
2017-04-06T09:56:38.304Z,1021.31
2017-04-06T10:01:34.970Z,1021.29
2017-04-06T10:11:34.526Z,1021.07
2017-04-06T10:16:30.963Z,1021.21
2017-04-06T10:21:27.219Z,1021.13
2017-04-06T10:26:23.407Z,1021.15
2017-04-06T10:31:20.362Z,1021.17
2017-04-06T10:36:17.215Z,1021.32
2017-04-06T10:46:22.151Z,1021.16
2017-04-06T10:51:20.615Z,1021.06
2017-04-06T10:56:20.418Z,1021.08
2017-04-06T11:01:19.344Z,1020.99
2017-04-06T11:06:14.115Z,1021.09
2017-04-06T11:11:11.138Z,1021.04
2017-04-06T11:16:07.823Z,1021.03
2017-04-06T11:21:03.139Z,1021.01
2017-04-06T11:25:59.116Z,1021.10
2017-04-06T11:30:57.071Z,1021.20
2017-04-06T11:35:55.231Z,1021.08
2017-04-06T11:40:54.533Z,1020.84
2017-04-06T11:45:49.495Z,1020.90
2017-04-06T11:50:47.036Z,1020.84
2017-04-06T11:55:41.432Z,1020.92
2017-04-06T12:00:36.972Z,1021.00
2017-04-06T12:05:33.725Z,1021.04
2017-04-06T12:10:31.689Z,1020.95
2017-04-06T12:15:29.880Z,1020.83
2017-04-06T12:20:27.803Z,1020.69
2017-04-06T12:25:22.601Z,1020.66
2017-04-06T12:30:21.250Z,1020.62
2017-04-06T12:35:20.880Z,1020.62
2017-04-06T12:45:16.267Z,1020.57
2017-04-06T12:50:13.995Z,1020.41
2017-04-06T12:55:09.076Z,1020.39
2017-04-06T13:00:05.248Z,1020.46
2017-04-06T13:05:02.587Z,1020.45
2017-04-06T13:09:59.775Z,1020.47
2017-04-06T13:15:00.201Z,1020.47
2017-04-06T13:19:55.369Z,1020.39
2017-04-06T13:24:51.737Z,1020.36
2017-04-06T13:29:48.357Z,1020.36
2017-04-06T13:34:44.832Z,1020.20
2017-04-06T13:39:45.603Z,1020.15
2017-04-06T13:44:41.011Z,1020.08
2017-04-06T13:49:36.875Z,1020.06
2017-04-06T13:54:33.096Z,1020.07
2017-04-06T13:59:29.453Z,1020.07
2017-04-06T14:04:26.418Z,1020.10
2017-04-06T14:09:23.118Z,1020.04
2017-04-06T14:14:21.802Z,1019.94
2017-04-06T14:19:17.784Z,1020.08
2017-04-06T14:24:14.294Z,1020.07
2017-04-06T14:29:11.856Z,1020.23
2017-04-06T14:34:08.226Z,1020.12
2017-04-06T14:39:04.652Z,1020.01
2017-04-06T14:44:01.198Z,1020.08
2017-04-06T14:48:57.702Z,1020.13
2017-04-06T14:53:53.960Z,1020.04
2017-04-06T14:58:50.213Z,1019.91
2017-04-06T15:03:46.586Z,1020.01
2017-04-06T15:08:44.612Z,1020.01
2017-04-06T15:13:41.477Z,1020.01
2017-04-06T15:18:37.614Z,1020.04
2017-04-06T15:23:35.239Z,1020.12
2017-04-06T15:28:31.506Z,1020.17
2017-04-06T15:33:27.860Z,1020.19
2017-04-06T15:38:25.482Z,1020.14
2017-04-06T15:43:21.883Z,1020.13
2017-04-06T15:48:21.616Z,1020.12
2017-04-06T15:53:17.551Z,1020.07
2017-04-06T15:58:14.536Z,1020.17
2017-04-06T16:03:13.364Z,1020.15
2017-04-06T16:08:09.491Z,1020.12
2017-04-06T16:13:09.340Z,1019.89
2017-04-06T16:18:04.877Z,1019.86
2017-04-06T16:23:01.207Z,1019.97
2017-04-06T16:27:57.917Z,1020.11
2017-04-06T16:32:54.409Z,1019.99
2017-04-06T16:42:53.525Z,1020.08
2017-04-06T16:47:50.034Z,1019.95
2017-04-06T16:52:46.732Z,1020.04
2017-04-06T16:57:43.994Z,1020.03
2017-04-06T17:02:40.356Z,1020.07
2017-04-06T17:07:36.745Z,1020.13
2017-04-06T17:12:33.269Z,1019.99
2017-04-06T17:17:29.478Z,1020.00
2017-04-06T17:22:27.486Z,1020.02
2017-04-06T17:27:23.534Z,1019.93
2017-04-06T17:32:20.473Z,1019.94
2017-04-06T17:37:17.014Z,1019.78
2017-04-06T17:42:13.557Z,1019.75
2017-04-06T17:47:10.845Z,1019.68
2017-04-06T17:52:06.774Z,1019.53
2017-04-06T17:57:03.470Z,1019.59
2017-04-06T18:01:59.739Z,1019.74
2017-04-06T18:06:56.229Z,1019.74
2017-04-06T18:11:52.249Z,1019.74
2017-04-06T18:16:49.438Z,1019.67
2017-04-06T18:21:45.802Z,1019.88
2017-04-06T18:26:42.230Z,1019.85
2017-04-06T18:31:38.950Z,1019.88
2017-04-06T18:36:35.217Z,1019.88
2017-04-06T18:41:31.454Z,1019.98
2017-04-06T18:46:28.558Z,1020.08
2017-04-06T18:51:25.562Z,1020.05
2017-04-06T18:56:22.624Z,1020.10
2017-04-06T19:01:19.072Z,1020.18
2017-04-06T19:06:15.678Z,1020.18
2017-04-06T19:11:12.336Z,1020.19
2017-04-06T19:16:10.811Z,1020.31
2017-04-06T19:21:07.195Z,1020.29
2017-04-06T19:26:03.595Z,1020.33
2017-04-06T19:31:00.179Z,1020.31
2017-04-06T19:35:56.733Z,1020.25
2017-04-06T19:40:53.074Z,1020.19
2017-04-06T19:45:49.974Z,1020.25
2017-04-06T19:50:46.694Z,1020.35
2017-04-06T19:55:43.065Z,1020.30
2017-04-06T20:00:40.356Z,1020.32
2017-04-06T20:05:36.498Z,1020.33
2017-04-06T20:10:33.577Z,1020.37
2017-04-06T20:15:30.077Z,1020.36
2017-04-06T20:20:26.406Z,1020.39
2017-04-06T20:25:23.168Z,1020.33
2017-04-06T20:30:20.494Z,1020.25
2017-04-06T20:35:16.260Z,1020.39
2017-04-06T20:40:12.760Z,1020.37
2017-04-06T20:45:09.320Z,1020.35
2017-04-06T20:50:06.573Z,1020.39
2017-04-06T20:55:03.095Z,1020.46
2017-04-06T20:59:59.802Z,1020.46
2017-04-06T21:04:56.160Z,1020.47
2017-04-06T21:09:52.464Z,1020.61
2017-04-06T21:14:49.263Z,1020.61
2017-04-06T21:19:46.841Z,1020.52
2017-04-06T21:24:42.983Z,1020.57
2017-04-06T21:29:39.424Z,1020.54
2017-04-06T21:34:36.560Z,1020.52
2017-04-06T21:39:33.122Z,1020.50
2017-04-06T21:44:30.624Z,1020.41
2017-04-06T21:49:26.897Z,1020.39
2017-04-06T21:54:23.274Z,1020.41
2017-04-06T21:59:19.651Z,1020.41
2017-04-06T22:04:15.948Z,1020.38
2017-04-06T22:09:12.066Z,1020.40
2017-04-06T22:14:08.486Z,1020.32
2017-04-06T22:19:05.972Z,1020.32
2017-04-06T22:24:02.270Z,1020.19
2017-04-06T22:28:59.583Z,1020.16
2017-04-06T22:33:56.306Z,1020.11
2017-04-06T22:38:52.958Z,1020.06
2017-04-06T22:43:49.763Z,1020.03
2017-04-06T22:48:45.719Z,1019.90
2017-04-06T22:53:42.391Z,1019.96
2017-04-06T22:58:38.951Z,1019.80
2017-04-06T23:03:35.456Z,1019.89
2017-04-06T23:08:31.836Z,1019.84
2017-04-06T23:13:28.246Z,1019.75
2017-04-06T23:18:25.155Z,1019.75
2017-04-06T23:23:22.424Z,1019.63
2017-04-06T23:28:18.770Z,1019.62
2017-04-06T23:33:15.415Z,1019.59
2017-04-06T23:38:11.589Z,1019.57
2017-04-06T23:43:07.910Z,1019.41
2017-04-06T23:48:04.421Z,1019.43
2017-04-06T23:53:01.958Z,1019.46
2017-04-06T23:57:58.430Z,1019.42
